• Join FlightAware (Why Join?)
  • Login
  • US Flag 
03:58AM EDT


 

Airport Tracker/Info


-or-


 

Live Flight TrackerFlight Track Log ✈ N658FE ✈ 08-May-2013 ✈ KMEM - KSDF

Flight Track Log - Related Links

Times and Time Zones

All times are in EDT time to prevent confusion due to time zone crossing. See the N658FE flight status page for this flight to view local times or setup timezone preferences in your user account.

Time Position Orientation Groundspeed Altitude Reporting Facility
EDT Latitude Longitude Course Direction KTS MPH feet Rate Location/Type
04:44AM 35.0167 -89.9667 180° South 154 177 1,300  Level KMEM
04:45AM 34.9667 -89.9667 180° South 231 266 3,300 3,060 Climbing KMEM
04:46AM 34.9167 -89.9000 132° Southeast 298 343 7,500 3,540 Climbing KMEM
04:48AM 34.9886 -89.6347 72° East 347 399 15,600 3,300 Climbing Memphis Center
04:49AM 35.0525 -89.5125 57° Northeast 385 443 19,000 3,180 Climbing Memphis Center
04:50AM 35.1142 -89.3872 59° Northeast 423 487 22,000 2,940 Climbing Memphis Center
04:51AM 35.1819 -89.2544 58° Northeast 439 505 24,900 2,640 Climbing Memphis Center
04:52AM 35.2536 -89.1214 57° Northeast 459 528 27,300 2,040 Climbing Memphis Center
04:53AM 35.3400 -88.9978 49° Northeast 469 540 29,000 840 Climbing Memphis Center
04:54AM 35.4242 -88.8792 49° Northeast 469 540 29,000 -780 Level Memphis Center
05:01AM 35.9270 -88.1470 49° Northeast 29,000 -780 Level FlightAware
05:01AM 35.9850 -88.0630 50° Northeast 29,000 -960 Level FlightAware
05:02AM 36.0470 -87.9710 50° Northeast 29,000 -960 Level FlightAware
05:03AM 36.1050 -87.8850 50° Northeast 29,000 -1,020 Level FlightAware
05:03AM 36.1660 -87.7940 50° Northeast 29,000 -1,020 Level FlightAware
05:04AM 36.2210 -87.7130 50° Northeast 29,000 -1,080 Level FlightAware
05:05AM 36.2750 -87.6320 50° Northeast 29,000 -1,080 Level FlightAware
05:05AM 36.3380 -87.5380 50° Northeast 29,000 -1,140 Level FlightAware
05:06AM 36.3930 -87.4560 50° Northeast 29,000 -1,140 Level FlightAware
05:07AM 36.4530 -87.3670 50° Northeast 29,000 -1,200 Level FlightAware
05:08AM 36.5090 -87.2820 51° Northeast 29,000 -1,200 Level FlightAware
05:08AM 36.5720 -87.1860 51° Northeast 29,000 -1,260 Level FlightAware
05:09AM 36.6280 -87.1020 50° Northeast 29,000 -1,260 Level FlightAware
05:10AM 36.6880 -87.0110 51° Northeast 28,600 -1,320 Descending FlightAware
05:10AM 36.7430 -86.9270 51° Northeast 27,900 -1,380 Descending FlightAware
05:11AM 36.7960 -86.8460 51° Northeast 27,300 -1,380 Descending FlightAware
05:12AM 36.8520 -86.7600 51° Northeast 26,600 -1,380 Descending FlightAware
05:12AM 36.9090 -86.6610 54° Northeast 25,800 -1,380 Descending FlightAware
05:13AM 36.9254 -86.5997 71° East 25,400 -1,380 Descending FlightAware ADS-B
05:13AM 36.9470 -86.5210 71° East 24,800 -1,380 Descending FlightAware
05:14AM 36.9716 -86.4277 72° East 24,200 -1,440 Descending FlightAware ADS-B
05:18AM 37.2450 -86.0220 50° Northeast 16,700 -1,440 Descending FlightAware
05:19AM 37.3230 -85.9450 38° Northeast 14,600 -1,260 Descending FlightAware
05:21AM 37.5630 -85.8480 18° North 10,000 -1,140 Descending FlightAware
05:22AM 37.6200 -85.8530 356° North 10,000 -1,020 Level FlightAware
05:23AM 37.7280 -85.8470 North 10,000 -1,080 Level FlightAware
05:23AM 37.7710 -85.8290 18° North 9,400 -1,200 Descending FlightAware
05:24AM 37.7920 -85.8200 19° North 8,800 -1,200 Descending FlightAware
05:24AM 37.8330 -85.8030 18° North 7,300 -1,200 Descending FlightAware
05:25AM 37.8620 -85.7910 18° North 6,200 -1,080 Descending FlightAware
05:25AM 37.8950 -85.7770 19° North 4,900 -960 Descending FlightAware
05:26AM 37.9290 -85.7640 17° North 3,800 -780 Descending FlightAware
05:26AM 37.9400 -85.7590 20° North 3,400 -660 Descending FlightAware
05:26AM 37.9720 -85.7450 19° North 3,100 -600 Descending FlightAware
05:27AM 38.0020 -85.7340 16° North 3,000 -600 Descending FlightAware
05:27AM 38.0230 -85.7260 17° North 2,800 -660 Descending FlightAware
05:28AM 38.0440 -85.7170 19° North 2,500 -660 Descending FlightAware
05:28AM 38.0620 -85.7140 North 2,200 -660 Descending FlightAware
05:29AM 38.0800 -85.7150 357° North 1,900 -660 Descending FlightAware
05:29AM 38.0970 -85.7190 350° North 1,800 -660 Descending FlightAware
05:30AM 38.1120 -85.7240 345° North 1,500 -780 Descending FlightAware
05:30AM 38.1270 -85.7290 345° North 1,200 -780 Descending FlightAware
05:31AM 38.1440 -85.7350 344° North 800 -840 Descending FlightAware
05:31AM 38.1520 -85.7370 349° North 600 -840 Descending FlightAware